sensor_id;sensor_type;location;lat;lon;timestamp;pressure;altitude;pressure_sealevel;temperature;humidity
75617;BME280;64200;55.426;37.758;2023-12-29T00:02:45;98564.56;;;-1.34;61.29
75617;BME280;64200;55.426;37.758;2023-12-29T00:07:45;98560.69;;;-1.37;61.75
75617;BME280;64200;55.426;37.758;2023-12-29T00:12:46;98563.06;;;-1.39;62.49
75617;BME280;64200;55.426;37.758;2023-12-29T00:17:46;98548.59;;;-1.67;62.99
75617;BME280;64200;55.426;37.758;2023-12-29T00:22:47;98534.53;;;-1.69;63.06
75617;BME280;64200;55.426;37.758;2023-12-29T00:27:47;98527.34;;;-1.55;62.28
75617;BME280;64200;55.426;37.758;2023-12-29T00:32:49;98504.38;;;-1.62;62.46
75617;BME280;64200;55.426;37.758;2023-12-29T00:37:50;98510.31;;;-1.67;62.62
75617;BME280;64200;55.426;37.758;2023-12-29T00:42:51;98490.25;;;-1.87;63.75
75617;BME280;64200;55.426;37.758;2023-12-29T00:47:51;98490.03;;;-2.00;63.76
75617;BME280;64200;55.426;37.758;2023-12-29T00:52:52;98486.06;;;-1.96;63.84
75617;BME280;64200;55.426;37.758;2023-12-29T00:57:53;98464.66;;;-2.01;64.05
75617;BME280;64200;55.426;37.758;2023-12-29T01:02:54;98462.38;;;-2.06;64.62
75617;BME280;64200;55.426;37.758;2023-12-29T01:07:54;98458.84;;;-2.03;64.59
75617;BME280;64200;55.426;37.758;2023-12-29T01:12:55;98459.06;;;-1.90;64.33
75617;BME280;64200;55.426;37.758;2023-12-29T01:17:55;98430.56;;;-1.92;64.53
75617;BME280;64200;55.426;37.758;2023-12-29T01:22:56;98412.56;;;-1.86;64.31
75617;BME280;64200;55.426;37.758;2023-12-29T01:27:56;98411.38;;;-2.16;64.76
75617;BME280;64200;55.426;37.758;2023-12-29T01:32:57;98404.91;;;-1.99;64.89
75617;BME280;64200;55.426;37.758;2023-12-29T01:37:57;98383.41;;;-1.97;64.21
75617;BME280;64200;55.426;37.758;2023-12-29T01:42:58;98371.75;;;-1.73;64.34
75617;BME280;64200;55.426;37.758;2023-12-29T01:47:59;98373.75;;;-2.05;64.24
75617;BME280;64200;55.426;37.758;2023-12-29T01:53:01;98373.66;;;-2.25;65.75
75617;BME280;64200;55.426;37.758;2023-12-29T01:58:03;98338.81;;;-2.17;64.96
75617;BME280;64200;55.426;37.758;2023-12-29T02:03:04;98339.91;;;-2.11;64.58
75617;BME280;64200;55.426;37.758;2023-12-29T02:08:05;98331.34;;;-2.13;64.62
75617;BME280;64200;55.426;37.758;2023-12-29T02:13:06;98312.28;;;-2.17;64.19
75617;BME280;64200;55.426;37.758;2023-12-29T02:18:10;98302.28;;;-1.76;64.22
75617;BME280;64200;55.426;37.758;2023-12-29T02:23:15;98287.28;;;-1.44;63.54
75617;BME280;64200;55.426;37.758;2023-12-29T02:28:21;98279.31;;;-1.82;63.44
75617;BME280;64200;55.426;37.758;2023-12-29T02:33:23;98283.69;;;-1.85;64.21
75617;BME280;64200;55.426;37.758;2023-12-29T02:38:25;98278.59;;;-1.39;63.33
75617;BME280;64200;55.426;37.758;2023-12-29T02:43:31;98279.88;;;-1.44;63.43
75617;BME280;64200;55.426;37.758;2023-12-29T02:48:31;98261.03;;;-1.62;63.59
75617;BME280;64200;55.426;37.758;2023-12-29T02:53:32;98247.78;;;-1.87;64.16
75617;BME280;64200;55.426;37.758;2023-12-29T02:58:32;98245.91;;;-1.46;63.92
75617;BME280;64200;55.426;37.758;2023-12-29T03:03:33;98227.94;;;-1.67;63.61
75617;BME280;64200;55.426;37.758;2023-12-29T03:08:33;98208.66;;;-1.60;63.52
75617;BME280;64200;55.426;37.758;2023-12-29T03:13:33;98215.47;;;-1.28;63.02
75617;BME280;64200;55.426;37.758;2023-12-29T03:18:34;98224.72;;;-1.62;63.51
75617;BME280;64200;55.426;37.758;2023-12-29T03:23:38;98224.25;;;-1.37;63.89
75617;BME280;64200;55.426;37.758;2023-12-29T03:28:39;98216.53;;;-1.22;63.08
75617;BME280;64200;55.426;37.758;2023-12-29T03:33:39;98216.81;;;-1.16;62.18
75617;BME280;64200;55.426;37.758;2023-12-29T03:38:40;98207.56;;;-1.22;62.79
75617;BME280;64200;55.426;37.758;2023-12-29T03:43:41;98199.91;;;-1.31;62.57
75617;BME280;64200;55.426;37.758;2023-12-29T03:48:41;98189.09;;;-1.38;63.00
75617;BME280;64200;55.426;37.758;2023-12-29T03:53:42;98190.44;;;-1.67;64.48
75617;BME280;64200;55.426;37.758;2023-12-29T03:58:43;98163.44;;;-1.85;65.11
75617;BME280;64200;55.426;37.758;2023-12-29T04:03:44;98152.00;;;-2.00;66.87
75617;BME280;64200;55.426;37.758;2023-12-29T04:08:44;98157.22;;;-2.09;67.28
75617;BME280;64200;55.426;37.758;2023-12-29T04:13:45;98115.38;;;-2.06;67.70
75617;BME280;64200;55.426;37.758;2023-12-29T04:18:45;98120.97;;;-1.89;68.70
75617;BME280;64200;55.426;37.758;2023-12-29T04:23:46;98125.03;;;-1.78;68.38
75617;BME280;64200;55.426;37.758;2023-12-29T04:28:47;98125.34;;;-1.96;68.70
75617;BME280;64200;55.426;37.758;2023-12-29T04:33:47;98111.78;;;-1.59;67.99
75617;BME280;64200;55.426;37.758;2023-12-29T04:38:48;98107.00;;;-1.75;68.76
75617;BME280;64200;55.426;37.758;2023-12-29T04:43:48;98104.50;;;-1.66;68.80
75617;BME280;64200;55.426;37.758;2023-12-29T04:48:49;98085.94;;;-1.38;67.46
75617;BME280;64200;55.426;37.758;2023-12-29T04:53:49;98085.50;;;-1.36;68.07
75617;BME280;64200;55.426;37.758;2023-12-29T04:58:51;98074.75;;;-1.44;67.72
75617;BME280;64200;55.426;37.758;2023-12-29T05:03:52;98050.50;;;-1.62;68.25
75617;BME280;64200;55.426;37.758;2023-12-29T05:08:52;98057.13;;;-1.43;68.43
75617;BME280;64200;55.426;37.758;2023-12-29T05:13:53;98046.84;;;-1.55;68.38
75617;BME280;64200;55.426;37.758;2023-12-29T05:18:53;98026.00;;;-1.49;68.78
75617;BME280;64200;55.426;37.758;2023-12-29T05:23:54;98039.72;;;-1.69;70.01
75617;BME280;64200;55.426;37.758;2023-12-29T05:28:54;98033.34;;;-1.82;70.15
75617;BME280;64200;55.426;37.758;2023-12-29T05:33:55;98019.19;;;-1.77;70.76
75617;BME280;64200;55.426;37.758;2023-12-29T05:38:56;98023.50;;;-1.96;70.71
75617;BME280;64200;55.426;37.758;2023-12-29T05:43:56;98021.19;;;-1.98;70.83
75617;BME280;64200;55.426;37.758;2023-12-29T05:48:58;98015.56;;;-1.90;71.04
75617;BME280;64200;55.426;37.758;2023-12-29T05:53:59;98014.53;;;-2.17;72.16
75617;BME280;64200;55.426;37.758;2023-12-29T05:58:59;98017.47;;;-1.87;71.62
75617;BME280;64200;55.426;37.758;2023-12-29T06:04:00;98026.28;;;-1.80;71.17
75617;BME280;64200;55.426;37.758;2023-12-29T06:09:00;98017.84;;;-1.69;71.14
75617;BME280;64200;55.426;37.758;2023-12-29T06:14:01;98015.19;;;-1.72;71.17
75617;BME280;64200;55.426;37.758;2023-12-29T06:19:01;98015.78;;;-1.45;70.73
75617;BME280;64200;55.426;37.758;2023-12-29T06:24:02;98009.38;;;-1.21;69.73
75617;BME280;64200;55.426;37.758;2023-12-29T06:29:02;98006.41;;;-1.11;69.01
75617;BME280;64200;55.426;37.758;2023-12-29T06:34:03;98000.81;;;-1.40;69.26
75617;BME280;64200;55.426;37.758;2023-12-29T06:39:03;97996.94;;;-1.59;70.07
75617;BME280;64200;55.426;37.758;2023-12-29T06:44:04;97994.03;;;-1.88;71.79
75617;BME280;64200;55.426;37.758;2023-12-29T06:49:08;97974.16;;;-1.36;71.38
75617;BME280;64200;55.426;37.758;2023-12-29T06:54:09;97986.88;;;-1.29;70.57
75617;BME280;64200;55.426;37.758;2023-12-29T06:59:09;97977.50;;;-1.28;70.58
75617;BME280;64200;55.426;37.758;2023-12-29T07:04:10;97972.72;;;-1.08;70.25
75617;BME280;64200;55.426;37.758;2023-12-29T07:09:11;97980.66;;;-1.13;70.42
75617;BME280;64200;55.426;37.758;2023-12-29T07:14:11;97964.13;;;-0.47;69.57
75617;BME280;64200;55.426;37.758;2023-12-29T07:19:12;97966.34;;;-0.42;68.10
75617;BME280;64200;55.426;37.758;2023-12-29T07:24:13;97970.69;;;-0.74;69.24
75617;BME280;64200;55.426;37.758;2023-12-29T07:29:13;97977.03;;;-0.94;69.65
75617;BME280;64200;55.426;37.758;2023-12-29T07:34:14;97972.53;;;-1.00;70.52
75617;BME280;64200;55.426;37.758;2023-12-29T07:39:14;97962.94;;;-0.92;70.39
75617;BME280;64200;55.426;37.758;2023-12-29T07:44:15;97965.06;;;-0.83;70.34
75617;BME280;64200;55.426;37.758;2023-12-29T07:49:15;97966.84;;;-0.77;69.51
75617;BME280;64200;55.426;37.758;2023-12-29T07:54:17;97962.91;;;-0.46;69.72
75617;BME280;64200;55.426;37.758;2023-12-29T07:59:17;97962.16;;;-0.47;68.90
75617;BME280;64200;55.426;37.758;2023-12-29T08:04:18;97954.56;;;-0.26;69.08
75617;BME280;64200;55.426;37.758;2023-12-29T08:09:18;97961.72;;;-0.16;68.80
75617;BME280;64200;55.426;37.758;2023-12-29T08:14:20;97948.81;;;-0.03;68.82
75617;BME280;64200;55.426;37.758;2023-12-29T08:19:20;97944.47;;;-0.29;68.75
75617;BME280;64200;55.426;37.758;2023-12-29T08:24:21;97925.00;;;-0.06;68.76
75617;BME280;64200;55.426;37.758;2023-12-29T08:29:21;97926.19;;;-0.07;69.08
75617;BME280;64200;55.426;37.758;2023-12-29T08:34:22;97926.72;;;-0.25;69.28
75617;BME280;64200;55.426;37.758;2023-12-29T08:39:23;97923.88;;;-0.21;70.19
75617;BME280;64200;55.426;37.758;2023-12-29T08:44:24;97914.91;;;0.04;69.93
75617;BME280;64200;55.426;37.758;2023-12-29T08:49:25;97915.03;;;0.26;69.64
75617;BME280;64200;55.426;37.758;2023-12-29T08:54:27;97903.53;;;-0.07;70.07
75617;BME280;64200;55.426;37.758;2023-12-29T08:59:27;97898.53;;;-0.25;71.28
75617;BME280;64200;55.426;37.758;2023-12-29T09:04:28;97898.00;;;-0.20;71.74
75617;BME280;64200;55.426;37.758;2023-12-29T09:09:28;97879.72;;;-0.10;71.71
75617;BME280;64200;55.426;37.758;2023-12-29T09:14:29;97896.94;;;0.03;71.60
75617;BME280;64200;55.426;37.758;2023-12-29T09:19:32;97883.31;;;-0.26;72.66
75617;BME280;64200;55.426;37.758;2023-12-29T09:24:33;97880.81;;;-0.08;72.58
75617;BME280;64200;55.426;37.758;2023-12-29T09:29:33;97874.78;;;0.23;71.41
75617;BME280;64200;55.426;37.758;2023-12-29T09:34:34;97881.81;;;0.37;71.46
75617;BME280;64200;55.426;37.758;2023-12-29T09:39:34;97872.78;;;0.49;70.92
75617;BME280;64200;55.426;37.758;2023-12-29T09:44:35;97855.06;;;0.15;72.48
75617;BME280;64200;55.426;37.758;2023-12-29T09:49:37;97858.63;;;0.51;72.12
75617;BME280;64200;55.426;37.758;2023-12-29T09:54:41;97838.28;;;0.74;71.47
75617;BME280;64200;55.426;37.758;2023-12-29T09:59:43;97847.69;;;0.86;71.13
75617;BME280;64200;55.426;37.758;2023-12-29T10:04:43;97855.75;;;1.02;71.33
75617;BME280;64200;55.426;37.758;2023-12-29T10:09:45;97854.09;;;1.27;71.63
75617;BME280;64200;55.426;37.758;2023-12-29T10:14:52;97851.22;;;1.31;70.86
75617;BME280;64200;55.426;37.758;2023-12-29T10:25:23;97851.41;;;1.36;71.44
75617;BME280;64200;55.426;37.758;2023-12-29T10:30:23;97857.00;;;1.55;70.80
75617;BME280;64200;55.426;37.758;2023-12-29T10:35:24;97851.31;;;1.71;70.71
75617;BME280;64200;55.426;37.758;2023-12-29T10:40:24;97854.53;;;1.79;70.68
75617;BME280;64200;55.426;37.758;2023-12-29T10:45:26;97845.91;;;1.90;70.72
75617;BME280;64200;55.426;37.758;2023-12-29T10:50:26;97835.53;;;1.94;70.53
75617;BME280;64200;55.426;37.758;2023-12-29T10:55:31;97825.59;;;1.97;71.01
75617;BME280;64200;55.426;37.758;2023-12-29T11:00:32;97823.94;;;1.99;71.94
75617;BME280;64200;55.426;37.758;2023-12-29T11:05:35;97821.53;;;2.10;71.47
75617;BME280;64200;55.426;37.758;2023-12-29T11:10:36;97824.28;;;2.10;71.73
75617;BME280;64200;55.426;37.758;2023-12-29T11:15:38;97834.22;;;2.17;72.47
75617;BME280;64200;55.426;37.758;2023-12-29T11:20:42;97830.63;;;2.30;72.13
75617;BME280;64200;55.426;37.758;2023-12-29T11:25:47;97845.47;;;2.41;71.71
75617;BME280;64200;55.426;37.758;2023-12-29T11:30:49;97842.28;;;2.43;72.40
75617;BME280;64200;55.426;37.758;2023-12-29T11:35:59;97839.03;;;2.35;72.37
75617;BME280;64200;55.426;37.758;2023-12-29T11:41:11;97848.69;;;2.49;72.50
75617;BME280;64200;55.426;37.758;2023-12-29T11:46:32;97847.97;;;2.58;73.02
75617;BME280;64200;55.426;37.758;2023-12-29T11:51:34;97842.28;;;2.52;73.46
75617;BME280;64200;55.426;37.758;2023-12-29T11:56:39;97850.56;;;2.71;73.11
75617;BME280;64200;55.426;37.758;2023-12-29T12:01:46;97837.75;;;2.77;72.86
75617;BME280;64200;55.426;37.758;2023-12-29T12:06:47;97842.47;;;2.67;73.49
75617;BME280;64200;55.426;37.758;2023-12-29T12:11:49;97855.16;;;2.74;73.96
75617;BME280;64200;55.426;37.758;2023-12-29T12:16:50;97848.13;;;2.73;74.73
75617;BME280;64200;55.426;37.758;2023-12-29T12:21:53;97851.34;;;2.71;75.23
75617;BME280;64200;55.426;37.758;2023-12-29T12:26:55;97863.13;;;2.81;74.75
75617;BME280;64200;55.426;37.758;2023-12-29T12:31:56;97869.88;;;2.89;74.96
75617;BME280;64200;55.426;37.758;2023-12-29T12:36:57;97873.25;;;2.93;75.38
75617;BME280;64200;55.426;37.758;2023-12-29T12:41:59;97869.69;;;2.93;75.47
75617;BME280;64200;55.426;37.758;2023-12-29T12:47:07;97887.00;;;3.03;75.66
75617;BME280;64200;55.426;37.758;2023-12-29T12:52:09;97891.44;;;3.00;75.95
75617;BME280;64200;55.426;37.758;2023-12-29T12:57:10;97885.63;;;3.07;75.65
75617;BME280;64200;55.426;37.758;2023-12-29T13:02:11;97894.06;;;3.04;75.74
75617;BME280;64200;55.426;37.758;2023-12-29T13:07:15;97895.13;;;2.97;76.43
75617;BME280;64200;55.426;37.758;2023-12-29T13:12:16;97889.47;;;3.01;76.95
75617;BME280;64200;55.426;37.758;2023-12-29T13:17:17;97889.59;;;3.06;76.68
75617;BME280;64200;55.426;37.758;2023-12-29T13:22:18;97896.03;;;3.03;77.27
75617;BME280;64200;55.426;37.758;2023-12-29T13:27:19;97890.22;;;3.01;77.88
75617;BME280;64200;55.426;37.758;2023-12-29T13:32:22;97891.44;;;3.09;77.60
75617;BME280;64200;55.426;37.758;2023-12-29T13:37:36;97893.13;;;3.16;77.68
75617;BME280;64200;55.426;37.758;2023-12-29T13:42:41;97894.50;;;3.21;77.42
75617;BME280;64200;55.426;37.758;2023-12-29T13:47:46;97895.72;;;3.20;77.99
75617;BME280;64200;55.426;37.758;2023-12-29T13:52:47;97898.50;;;3.20;78.11
75617;BME280;64200;55.426;37.758;2023-12-29T13:57:47;97896.06;;;3.22;77.80
75617;BME280;64200;55.426;37.758;2023-12-29T14:02:58;97902.78;;;3.21;78.21
75617;BME280;64200;55.426;37.758;2023-12-29T14:13:13;97909.84;;;3.22;78.33
75617;BME280;64200;55.426;37.758;2023-12-29T14:23:33;97913.03;;;3.29;78.09
75617;BME280;64200;55.426;37.758;2023-12-29T14:28:33;97907.22;;;3.37;77.79
75617;BME280;64200;55.426;37.758;2023-12-29T14:33:34;97925.28;;;3.47;77.67
75617;BME280;64200;55.426;37.758;2023-12-29T14:38:36;97927.28;;;3.37;77.62
75617;BME280;64200;55.426;37.758;2023-12-29T14:43:36;97924.22;;;3.44;77.82
75617;BME280;64200;55.426;37.758;2023-12-29T14:48:37;97928.03;;;3.28;78.04
75617;BME280;64200;55.426;37.758;2023-12-29T14:53:38;97923.00;;;3.36;78.35
75617;BME280;64200;55.426;37.758;2023-12-29T14:58:39;97923.00;;;3.36;78.34
75617;BME280;64200;55.426;37.758;2023-12-29T15:03:40;97930.34;;;3.39;78.38
75617;BME280;64200;55.426;37.758;2023-12-29T15:08:41;97929.09;;;3.40;78.24
75617;BME280;64200;55.426;37.758;2023-12-29T15:13:41;97925.13;;;3.41;77.99
75617;BME280;64200;55.426;37.758;2023-12-29T15:18:42;97926.03;;;3.57;78.19
75617;BME280;64200;55.426;37.758;2023-12-29T15:23:43;97918.56;;;3.48;77.83
75617;BME280;64200;55.426;37.758;2023-12-29T15:28:43;97921.00;;;3.46;78.31
75617;BME280;64200;55.426;37.758;2023-12-29T15:33:44;97913.34;;;3.50;78.18
75617;BME280;64200;55.426;37.758;2023-12-29T15:38:44;97898.81;;;3.49;77.55
75617;BME280;64200;55.426;37.758;2023-12-29T15:43:45;97910.72;;;3.65;77.47
75617;BME280;64200;55.426;37.758;2023-12-29T15:48:46;97915.16;;;3.72;77.34
75617;BME280;64200;55.426;37.758;2023-12-29T15:53:47;97911.34;;;3.69;76.98
75617;BME280;64200;55.426;37.758;2023-12-29T15:58:47;97916.53;;;3.76;77.01
75617;BME280;64200;55.426;37.758;2023-12-29T16:03:48;97916.69;;;3.73;77.00
75617;BME280;64200;55.426;37.758;2023-12-29T16:08:49;97917.59;;;3.79;77.16
75617;BME280;64200;55.426;37.758;2023-12-29T16:13:53;97919.78;;;3.56;77.76
75617;BME280;64200;55.426;37.758;2023-12-29T16:18:53;97919.16;;;3.33;78.82
75617;BME280;64200;55.426;37.758;2023-12-29T16:23:54;97913.34;;;3.59;78.11
75617;BME280;64200;55.426;37.758;2023-12-29T16:28:54;97907.22;;;3.64;77.29
75617;BME280;64200;55.426;37.758;2023-12-29T16:33:55;97901.84;;;3.51;77.43
75617;BME280;64200;55.426;37.758;2023-12-29T16:38:56;97909.50;;;3.47;77.57
75617;BME280;64200;55.426;37.758;2023-12-29T16:43:56;97903.84;;;3.51;77.70
75617;BME280;64200;55.426;37.758;2023-12-29T16:48:57;97911.31;;;3.78;76.76
75617;BME280;64200;55.426;37.758;2023-12-29T16:53:57;97920.06;;;3.58;77.09
75617;BME280;64200;55.426;37.758;2023-12-29T16:58:58;97917.00;;;3.56;77.17
75617;BME280;64200;55.426;37.758;2023-12-29T17:04:00;97913.78;;;3.30;77.81
75617;BME280;64200;55.426;37.758;2023-12-29T17:09:01;97921.91;;;3.43;78.01
75617;BME280;64200;55.426;37.758;2023-12-29T17:14:01;97917.94;;;3.44;78.27
75617;BME280;64200;55.426;37.758;2023-12-29T17:19:03;97910.25;;;3.66;77.27
75617;BME280;64200;55.426;37.758;2023-12-29T17:24:04;97909.47;;;3.75;77.28
75617;BME280;64200;55.426;37.758;2023-12-29T17:29:04;97911.63;;;3.71;76.91
75617;BME280;64200;55.426;37.758;2023-12-29T17:34:05;97917.72;;;3.94;76.71
75617;BME280;64200;55.426;37.758;2023-12-29T17:39:05;97905.31;;;3.89;76.13
75617;BME280;64200;55.426;37.758;2023-12-29T17:44:06;97901.38;;;3.72;76.80
75617;BME280;64200;55.426;37.758;2023-12-29T17:49:07;97900.88;;;3.92;76.61
75617;BME280;64200;55.426;37.758;2023-12-29T17:54:07;97900.22;;;4.06;75.73
75617;BME280;64200;55.426;37.758;2023-12-29T17:59:08;97900.97;;;4.07;76.08
75617;BME280;64200;55.426;37.758;2023-12-29T18:04:08;97890.03;;;4.21;75.89
75617;BME280;64200;55.426;37.758;2023-12-29T18:09:09;97893.44;;;4.07;75.62
75617;BME280;64200;55.426;37.758;2023-12-29T18:14:14;97893.25;;;4.20;75.42
75617;BME280;64200;55.426;37.758;2023-12-29T18:19:15;97896.19;;;4.16;75.44
75617;BME280;64200;55.426;37.758;2023-12-29T18:24:22;97888.84;;;4.13;75.17
75617;BME280;64200;55.426;37.758;2023-12-29T18:29:23;97874.72;;;4.20;74.93
75617;BME280;64200;55.426;37.758;2023-12-29T18:34:25;97871.50;;;4.22;75.23
75617;BME280;64200;55.426;37.758;2023-12-29T18:39:25;97872.75;;;4.12;75.36
75617;BME280;64200;55.426;37.758;2023-12-29T18:44:26;97865.78;;;3.83;75.73
75617;BME280;64200;55.426;37.758;2023-12-29T18:49:26;97862.25;;;3.92;75.58
75617;BME280;64200;55.426;37.758;2023-12-29T18:54:27;97866.19;;;4.09;75.30
75617;BME280;64200;55.426;37.758;2023-12-29T18:59:33;97867.00;;;3.82;76.23
75617;BME280;64200;55.426;37.758;2023-12-29T19:04:34;97849.56;;;3.76;76.44
75617;BME280;64200;55.426;37.758;2023-12-29T19:09:34;97847.72;;;3.82;76.64
75617;BME280;64200;55.426;37.758;2023-12-29T19:14:35;97840.25;;;3.73;77.00
75617;BME280;64200;55.426;37.758;2023-12-29T19:19:36;97834.56;;;3.77;77.08
75617;BME280;64200;55.426;37.758;2023-12-29T19:24:36;97826.47;;;3.73;77.42
75617;BME280;64200;55.426;37.758;2023-12-29T19:29:44;97828.91;;;3.71;77.42
75617;BME280;64200;55.426;37.758;2023-12-29T19:34:45;97822.16;;;3.72;77.62
75617;BME280;64200;55.426;37.758;2023-12-29T19:39:45;97827.25;;;3.64;78.46
75617;BME280;64200;55.426;37.758;2023-12-29T19:44:46;97813.94;;;3.54;78.76
75617;BME280;64200;55.426;37.758;2023-12-29T19:49:46;97815.03;;;3.47;79.17
75617;BME280;64200;55.426;37.758;2023-12-29T19:54:47;97812.84;;;3.60;79.58
75617;BME280;64200;55.426;37.758;2023-12-29T19:59:48;97811.03;;;3.57;79.51
75617;BME280;64200;55.426;37.758;2023-12-29T20:04:50;97806.31;;;3.48;80.02
75617;BME280;64200;55.426;37.758;2023-12-29T20:09:51;97801.06;;;3.60;79.62
75617;BME280;64200;55.426;37.758;2023-12-29T20:14:52;97799.69;;;3.64;79.52
75617;BME280;64200;55.426;37.758;2023-12-29T20:19:54;97792.63;;;3.63;80.04
75617;BME280;64200;55.426;37.758;2023-12-29T20:24:55;97793.13;;;3.43;79.99
75617;BME280;64200;55.426;37.758;2023-12-29T20:29:56;97788.69;;;3.46;80.83
75617;BME280;64200;55.426;37.758;2023-12-29T20:34:56;97769.13;;;3.34;81.26
75617;BME280;64200;55.426;37.758;2023-12-29T20:39:59;97773.47;;;3.17;82.05
75617;BME280;64200;55.426;37.758;2023-12-29T20:45:01;97767.00;;;3.11;82.20
75617;BME280;64200;55.426;37.758;2023-12-29T20:50:01;97775.56;;;3.31;81.68
75617;BME280;64200;55.426;37.758;2023-12-29T20:55:02;97763.81;;;3.22;81.78
75617;BME280;64200;55.426;37.758;2023-12-29T21:00:05;97747.72;;;3.29;81.35
75617;BME280;64200;55.426;37.758;2023-12-29T21:05:06;97734.63;;;2.96;82.11
75617;BME280;64200;55.426;37.758;2023-12-29T21:10:09;97737.53;;;3.02;82.31
75617;BME280;64200;55.426;37.758;2023-12-29T21:15:10;97711.91;;;3.11;81.90
75617;BME280;64200;55.426;37.758;2023-12-29T21:20:11;97723.28;;;2.94;82.29
75617;BME280;64200;55.426;37.758;2023-12-29T21:25:12;97720.69;;;3.00;82.25
75617;BME280;64200;55.426;37.758;2023-12-29T21:30:13;97688.72;;;2.93;82.25
75617;BME280;64200;55.426;37.758;2023-12-29T21:35:16;97698.81;;;2.87;81.92
75617;BME280;64200;55.426;37.758;2023-12-29T21:40:18;97690.25;;;2.85;82.52
75617;BME280;64200;55.426;37.758;2023-12-29T21:45:19;97658.28;;;2.88;81.77
75617;BME280;64200;55.426;37.758;2023-12-29T21:50:20;97672.03;;;2.97;82.41
75617;BME280;64200;55.426;37.758;2023-12-29T21:55:21;97660.66;;;2.52;83.79
75617;BME280;64200;55.426;37.758;2023-12-29T22:00:22;97643.00;;;2.87;81.80
75617;BME280;64200;55.426;37.758;2023-12-29T22:05:24;97646.97;;;2.76;82.09
75617;BME280;64200;55.426;37.758;2023-12-29T22:10:24;97636.13;;;2.82;81.89
75617;BME280;64200;55.426;37.758;2023-12-29T22:15:25;97622.25;;;2.67;82.44
75617;BME280;64200;55.426;37.758;2023-12-29T22:20:25;97611.31;;;2.91;82.08
75617;BME280;64200;55.426;37.758;2023-12-29T22:25:26;97615.81;;;2.70;83.02
75617;BME280;64200;55.426;37.758;2023-12-29T22:30:27;97599.81;;;2.41;83.95
75617;BME280;64200;55.426;37.758;2023-12-29T22:35:28;97589.53;;;2.60;83.51
75617;BME280;64200;55.426;37.758;2023-12-29T22:40:28;97586.13;;;2.74;83.79
75617;BME280;64200;55.426;37.758;2023-12-29T22:45:33;97577.88;;;2.74;83.60
75617;BME280;64200;55.426;37.758;2023-12-29T22:50:34;97565.75;;;2.81;83.41
75617;BME280;64200;55.426;37.758;2023-12-29T22:55:34;97546.34;;;2.75;82.80
75617;BME280;64200;55.426;37.758;2023-12-29T23:00:35;97555.34;;;2.85;83.66
75617;BME280;64200;55.426;37.758;2023-12-29T23:05:36;97543.44;;;2.79;83.71
75617;BME280;64200;55.426;37.758;2023-12-29T23:10:37;97537.66;;;2.77;84.51
75617;BME280;64200;55.426;37.758;2023-12-29T23:15:37;97532.75;;;2.72;84.88
75617;BME280;64200;55.426;37.758;2023-12-29T23:20:38;97516.16;;;2.90;84.11
75617;BME280;64200;55.426;37.758;2023-12-29T23:25:38;97512.16;;;3.01;84.43
75617;BME280;64200;55.426;37.758;2023-12-29T23:30:39;97502.41;;;3.14;83.56
75617;BME280;64200;55.426;37.758;2023-12-29T23:35:40;97502.09;;;2.88;83.94
75617;BME280;64200;55.426;37.758;2023-12-29T23:40:40;97497.38;;;2.79;85.45
75617;BME280;64200;55.426;37.758;2023-12-29T23:45:41;97486.22;;;2.83;84.68
75617;BME280;64200;55.426;37.758;2023-12-29T23:50:41;97483.81;;;3.00;84.36
75617;BME280;64200;55.426;37.758;2023-12-29T23:55:42;97482.34;;;2.90;84.02
